Time;durP1;ratioP1;P1;durP2;ratioP2;P2;SDS_P1;SDS_P2;PMS_P1;PMS_P2;Temp;Humidity;BMP_temperature;BMP_pressure;BME280_temperature;BME280_humidity;BME280_pressure;Samples;Min_cycle;Max_cycle;Signal;HPM_P1;HPM_P2
2021/05/04 00:01:51;;;;;;;;;;;;;;;20.97;49.76;100940.50;5037652;28;759;-62
2021/05/04 00:04:16;;;;;;;;;;;;;;;20.95;49.75;100936.41;5038040;28;739;-64
2021/05/04 00:06:42;;;;;;;;;;;;;;;21.39;48.49;100934.31;5037695;28;759;-57
2021/05/04 00:09:07;;;;;;;;;;;;;;;21.74;47.49;100924.63;5037632;28;982;-52
2021/05/04 00:11:33;;;;;;;;;;;;;;;21.95;47.06;100925.03;5037583;28;820;-52
2021/05/04 00:13:58;;;;;;;;;;;;;;;21.99;46.92;100925.22;5037464;28;1226;-49
2021/05/04 00:16:24;;;;;;;;;;;;;;;21.60;47.88;100934.81;5037480;28;795;-48
2021/05/04 00:18:49;;;;;;;;;;;;;;;21.41;48.45;100943.97;5036670;28;775;-47
2021/05/04 00:21:15;;;;;;;;;;;;;;;21.18;48.94;100934.66;5037364;28;769;-59
2021/05/04 00:23:40;;;;;;;;;;;;;;;21.55;48.18;100940.47;5037267;28;970;-49
2021/05/04 00:26:08;;;;;;;;;;;;;;;21.44;48.48;100948.06;5052820;28;1918;-50
2021/05/04 00:28:33;;;;;;;;;;;;;;;21.20;48.90;100949.81;5037503;28;743;-50
2021/05/04 00:30:59;;;;;;;;;;;;;;;21.02;49.25;100945.13;5037668;28;782;-61
2021/05/04 00:33:24;;;;;;;;;;;;;;;21.00;49.12;100952.91;5037207;28;810;-50
2021/05/04 00:35:50;;;;;;;;;;;;;;;20.88;49.73;100947.00;5037314;28;753;-54
2021/05/04 00:38:16;;;;;;;;;;;;;;;21.05;49.26;100952.81;5037560;28;947;-55
2021/05/04 00:40:41;;;;;;;;;;;;;;;21.20;48.69;100949.81;5037189;28;795;-61
2021/05/04 00:43:10;;;;;;;;;;;;;;;21.19;48.94;100953.69;5036814;28;772;-63
2021/05/04 00:45:35;;;;;;;;;;;;;;;21.35;48.54;100959.00;5036957;28;1981;-51
2021/05/04 00:48:01;;;;;;;;;;;;;;;21.13;49.01;100952.16;5037164;28;731;-48
2021/05/04 00:50:26;;;;;;;;;;;;;;;21.19;48.73;100953.69;5036832;28;498;-55
2021/05/04 00:52:52;;;;;;;;;;;;;;;21.48;48.09;100968.47;5037030;28;815;-49
2021/05/04 00:55:20;;;;;;;;;;;;;;;21.73;47.40;100966.41;5036790;28;954;-56
2021/05/04 00:57:46;;;;;;;;;;;;;;;21.67;47.52;100965.66;5035653;28;1216;-48
2021/05/04 01:00:12;;;;;;;;;;;;;;;21.73;47.35;100964.47;5036921;28;779;-47
2021/05/04 01:02:38;;;;;;;;;;;;;;;21.49;48.14;100968.16;5036688;28;829;-62
2021/05/04 01:05:03;;;;;;;;;;;;;;;21.44;48.31;100970.19;5052045;28;1914;-61
2021/05/04 01:07:29;;;;;;;;;;;;;;;21.32;48.29;100968.72;5036719;28;818;-61
2021/05/04 01:09:54;;;;;;;;;;;;;;;21.06;48.68;100962.75;5051624;28;1014;-63
2021/05/04 01:15:32;;;;;;;;;;;;;;;21.15;49.20;100963.75;5036432;28;989;-46
2021/05/04 01:17:57;;;;;;;;;;;;;;;21.23;48.71;100958.66;5051942;28;883;-48
2021/05/04 01:20:23;;;;;;;;;;;;;;;21.23;48.91;100958.66;5037006;28;902;-52
2021/05/04 01:22:48;;;;;;;;;;;;;;;21.05;48.96;100958.34;5052010;28;790;-46
2021/05/04 01:25:15;;;;;;;;;;;;;;;20.93;49.39;100955.22;5036250;28;1910;-47
2021/05/04 01:27:40;;;;;;;;;;;;;;;20.89;49.44;100955.00;5036426;28;826;-46
2021/05/04 01:30:06;;;;;;;;;;;;;;;21.01;49.34;100951.78;5039946;28;795;-46
2021/05/04 01:32:31;;;;;;;;;;;;;;;21.47;48.30;100951.03;5041693;28;868;-47
2021/05/04 01:34:57;;;;;;;;;;;;;;;21.58;47.85;100950.91;5043336;28;795;-61
2021/05/04 01:37:23;;;;;;;;;;;;;;;21.95;46.93;100951.88;5058236;28;740;-49
2021/05/04 01:39:50;;;;;;;;;;;;;;;21.63;47.72;100948.03;5042793;28;997;-56
2021/05/04 01:42:22;;;;;;;;;;;;;;;21.44;48.04;100954.41;5043040;28;808;-55
2021/05/04 01:44:50;;;;;;;;;;;;;;;21.28;48.42;100956.63;5042581;28;1909;-47
2021/05/04 01:47:16;;;;;;;;;;;;;;;21.13;48.57;100946.63;5043255;28;861;-52
2021/05/04 01:49:41;;;;;;;;;;;;;;;21.31;48.74;100952.44;5043002;28;758;-49
2021/05/04 01:52:07;;;;;;;;;;;;;;;21.43;48.23;100963.00;5042733;28;799;-44
2021/05/04 01:54:32;;;;;;;;;;;;;;;21.30;48.63;100961.84;5042512;28;994;-47
2021/05/04 01:56:59;;;;;;;;;;;;;;;21.35;48.48;100956.25;5043182;28;752;-52
2021/05/04 01:59:28;;;;;;;;;;;;;;;21.50;48.06;100963.44;5042596;28;799;-47
2021/05/04 02:01:57;;;;;;;;;;;;;;;21.55;47.96;100963.41;5041705;28;787;-47
2021/05/04 02:04:24;;;;;;;;;;;;;;;21.45;48.12;100963.56;5042810;28;1906;-48
2021/05/04 02:06:49;;;;;;;;;;;;;;;21.45;48.04;100961.59;5043131;28;807;-49
2021/05/04 02:09:15;;;;;;;;;;;;;;;21.51;48.14;100965.91;5041629;28;983;-47
2021/05/04 02:11:40;;;;;;;;;;;;;;;21.45;48.34;100963.56;5042568;28;854;-63
2021/05/04 02:14:07;;;;;;;;;;;;;;;21.67;47.64;100969.28;5042743;28;1083;-47
2021/05/04 02:16:38;;;;;;;;;;;;;;;21.76;47.60;100963.84;5042708;28;779;-47
2021/05/04 02:19:04;;;;;;;;;;;;;;;21.68;47.65;100964.56;5042535;28;776;-54
2021/05/04 02:21:29;;;;;;;;;;;;;;;21.82;47.47;100975.66;5042759;28;818;-49
2021/05/04 02:23:55;;;;;;;;;;;;;;;21.88;47.14;100975.28;5042269;28;966;-60
2021/05/04 02:26:20;;;;;;;;;;;;;;;21.98;46.79;100968.72;5042630;28;1910;-51
2021/05/04 02:28:46;;;;;;;;;;;;;;;21.92;47.08;100971.88;5042590;28;760;-48
2021/05/04 02:31:12;;;;;;;;;;;;;;;21.31;48.40;100972.59;5043007;28;712;-53
2021/05/04 02:33:38;;;;;;;;;;;;;;;21.04;49.15;100976.06;5042442;28;811;-53
2021/05/04 02:36:03;;;;;;;;;;;;;;;20.97;49.36;100976.44;5041646;28;781;-49
2021/05/04 02:38:30;;;;;;;;;;;;;;;21.11;49.21;100973.75;5041447;28;1248;-51
2021/05/04 02:40:56;;;;;;;;;;;;;;;21.40;48.33;100975.50;5040874;28;756;-49
2021/05/04 02:43:27;;;;;;;;;;;;;;;21.63;47.79;100976.53;5039324;28;728;-47
2021/05/04 02:45:52;;;;;;;;;;;;;;;21.67;47.84;100977.59;5054040;28;1993;-50
2021/05/04 02:48:18;;;;;;;;;;;;;;;21.87;46.99;100975.56;5039727;28;898;-49
2021/05/04 02:50:44;;;;;;;;;;;;;;;22.01;46.85;100983.91;5039414;28;752;-49
2021/05/04 02:53:09;;;;;;;;;;;;;;;21.67;47.42;100979.50;5038842;28;1013;-59
2021/05/04 02:55:36;;;;;;;;;;;;;;;21.27;48.56;100976.28;5039119;28;887;-47
2021/05/04 02:58:01;;;;;;;;;;;;;;;21.38;48.30;100983.28;5038972;28;835;-57
2021/05/04 03:00:27;;;;;;;;;;;;;;;21.06;48.80;100997.91;5039044;28;767;-60
2021/05/04 03:02:52;;;;;;;;;;;;;;;20.98;49.01;101010.44;5039062;28;731;-47
2021/05/04 03:05:18;;;;;;;;;;;;;;;21.22;48.96;101004.81;5039284;28;1910;-47
2021/05/04 03:07:44;;;;;;;;;;;;;;;21.23;48.72;101000.13;5038970;28;842;-53
2021/05/04 03:10:10;;;;;;;;;;;;;;;21.33;48.51;100998.00;5038761;28;1018;-47
2021/05/04 03:13:06;;;;;;;;;;;;;;;21.47;48.04;101009.13;5038804;28;791;-56
2021/05/04 03:15:34;;;;;;;;;;;;;;;21.51;48.01;101014.91;5038486;28;1171;-47
2021/05/04 03:18:01;;;;;;;;;;;;;;;21.78;47.34;101013.38;5038870;28;838;-61
2021/05/04 03:20:26;;;;;;;;;;;;;;;21.76;47.26;101021.97;5038665;28;775;-61
2021/05/04 03:22:52;;;;;;;;;;;;;;;21.76;47.33;101038.59;5037129;28;869;-51
2021/05/04 03:25:17;;;;;;;;;;;;;;;21.80;47.37;101038.81;5038408;28;1975;-62
2021/05/04 03:27:43;;;;;;;;;;;;;;;21.77;47.52;101039.41;5038446;28;827;-47
2021/05/04 03:30:09;;;;;;;;;;;;;;;21.76;47.40;101046.91;5038624;28;787;-63
2021/05/04 03:32:34;;;;;;;;;;;;;;;21.77;47.32;101059.63;5053961;28;1279;-62
2021/05/04 03:35:00;;;;;;;;;;;;;;;21.68;47.78;101058.66;5038156;28;827;-62
2021/05/04 03:37:25;;;;;;;;;;;;;;;21.79;47.20;101059.31;5038608;28;792;-58
2021/05/04 03:39:52;;;;;;;;;;;;;;;21.75;47.63;101064.63;5037198;28;1957;-47
2021/05/04 03:42:39;;;;;;;;;;;;;;;21.76;47.41;101054.38;5038312;28;748;-46
2021/05/04 03:45:05;;;;;;;;;;;;;;;21.86;47.32;101071.63;5036932;28;1914;-48
2021/05/04 03:47:30;;;;;;;;;;;;;;;21.31;48.51;101071.38;5036682;28;746;-46
2021/05/04 03:49:56;;;;;;;;;;;;;;;21.06;49.22;101078.88;5038525;28;791;-48
2021/05/04 03:52:21;;;;;;;;;;;;;;;20.66;49.97;101079.09;5037955;28;783;-45
2021/05/04 03:54:47;;;;;;;;;;;;;;;21.11;49.03;101087.13;5037657;28;1025;-58
2021/05/04 03:57:12;;;;;;;;;;;;;;;21.50;47.60;101087.94;5053091;28;896;-55
2021/05/04 03:59:38;;;;;;;;;;;;;;;21.74;47.07;101087.91;5038329;28;771;-46
2021/05/04 04:02:03;;;;;;;;;;;;;;;21.97;46.57;101085.31;5037634;28;815;-50
2021/05/04 04:04:29;;;;;;;;;;;;;;;21.96;46.22;101091.97;5052820;28;1918;-62
2021/05/04 04:06:54;;;;;;;;;;;;;;;22.05;45.98;101090.97;5038248;28;786;-47
2021/05/04 04:09:20;;;;;;;;;;;;;;;21.66;46.95;101094.13;5037422;28;1044;-47
2021/05/04 04:11:45;;;;;;;;;;;;;;;21.27;48.38;101106.28;5037680;28;760;-47
2021/05/04 04:14:11;;;;;;;;;;;;;;;21.11;48.03;101109.25;5037612;28;1167;-49
2021/05/04 04:16:36;;;;;;;;;;;;;;;21.25;48.36;101112.09;5037459;28;748;-50
2021/05/04 04:19:02;;;;;;;;;;;;;;;21.72;47.11;101117.00;5020866;28;1199;-61
2021/05/04 04:21:27;;;;;;;;;;;;;;;22.01;46.43;101125.94;5037352;28;806;-65
2021/05/04 04:23:53;;;;;;;;;;;;;;;22.16;46.24;101133.19;5037177;28;1026;-48
2021/05/04 04:26:18;;;;;;;;;;;;;;;22.03;46.23;101132.00;5030113;28;1910;-68
2021/05/04 04:28:44;;;;;;;;;;;;;;;22.09;46.34;101132.75;5024527;28;1182;-66
2021/05/04 04:31:09;;;;;;;;;;;;;;;21.52;47.48;101141.91;5024754;28;1120;-48
2021/05/04 04:33:35;;;;;;;;;;;;;;;21.31;48.13;101143.28;5029059;28;1117;-55
2021/05/04 04:36:00;;;;;;;;;;;;;;;21.15;48.95;101135.19;5037052;28;780;-48
2021/05/04 04:38:26;;;;;;;;;;;;;;;21.51;47.81;101131.91;5037075;28;1006;-68
2021/05/04 04:40:53;;;;;;;;;;;;;;;21.83;47.08;101141.44;5037052;28;835;-47
2021/05/04 04:43:18;;;;;;;;;;;;;;;21.95;46.73;101151.22;5036734;28;760;-69
2021/05/04 04:45:44;;;;;;;;;;;;;;;21.95;46.64;101156.78;5036582;28;1910;-48
2021/05/04 04:48:09;;;;;;;;;;;;;;;21.70;47.30;101158.81;5036998;28;1376;-67
2021/05/04 04:50:35;;;;;;;;;;;;;;;21.42;47.93;101161.38;5036847;28;839;-46
2021/05/04 04:53:00;;;;;;;;;;;;;;;21.13;48.45;101159.53;5037076;28;768;-45
2021/05/04 04:55:26;;;;;;;;;;;;;;;20.97;48.72;101166.34;5036798;28;974;-46
2021/05/04 04:57:52;;;;;;;;;;;;;;;21.40;48.37;101166.38;5035076;28;1196;-66
2021/05/04 05:00:17;;;;;;;;;;;;;;;21.61;47.69;101166.13;5036740;28;822;-65
2021/05/04 05:02:43;;;;;;;;;;;;;;;21.70;47.55;101178.19;5036481;28;835;-49
2021/05/04 05:05:09;;;;;;;;;;;;;;;22.02;46.72;101180.19;5036129;28;1923;-45
2021/05/04 05:07:34;;;;;;;;;;;;;;;22.04;46.57;101186.25;5036674;28;819;-52
2021/05/04 05:09:59;;;;;;;;;;;;;;;21.56;47.44;101180.88;5036235;28;1034;-65
2021/05/04 05:12:26;;;;;;;;;;;;;;;21.42;48.00;101183.53;5036603;28;820;-50
2021/05/04 05:14:52;;;;;;;;;;;;;;;21.11;47.90;101189.44;5036446;28;1064;-65
2021/05/04 05:17:18;;;;;;;;;;;;;;;21.43;47.96;101193.44;5036420;28;915;-48
2021/05/04 05:19:43;;;;;;;;;;;;;;;21.73;47.25;101194.19;5036545;28;847;-54
2021/05/04 05:22:09;;;;;;;;;;;;;;;21.78;46.96;101194.09;5036555;28;836;-46
2021/05/04 05:24:34;;;;;;;;;;;;;;;21.97;46.74;101187.75;5035714;28;1914;-45
2021/05/04 05:27:00;;;;;;;;;;;;;;;21.95;46.70;101198.31;5037043;28;829;-48
2021/05/04 05:29:28;;;;;;;;;;;;;;;22.02;46.46;101198.75;5035486;28;914;-62
2021/05/04 05:31:53;;;;;;;;;;;;;;;21.47;47.96;101197.28;5036496;28;782;-46
2021/05/04 05:34:19;;;;;;;;;;;;;;;21.23;48.49;101202.03;5018379;28;821;-63
2021/05/04 05:36:44;;;;;;;;;;;;;;;21.16;48.36;101205.13;5036742;28;799;-63
2021/05/04 05:39:10;;;;;;;;;;;;;;;21.51;47.67;101203.84;5034670;28;930;-64
2021/05/04 05:41:35;;;;;;;;;;;;;;;21.85;47.02;101204.81;5035729;28;847;-52
2021/05/04 05:44:00;;;;;;;;;;;;;;;22.07;46.37;101212.53;5036076;28;756;-45
2021/05/04 05:46:30;;;;;;;;;;;;;;;22.15;46.16;101220.16;5036126;28;1918;-50
2021/05/04 05:48:55;;;;;;;;;;;;;;;21.52;47.52;101211.06;5036073;28;892;-46
2021/05/04 05:51:21;;;;;;;;;;;;;;;21.41;48.00;101209.53;5036381;28;792;-47
2021/05/04 05:53:46;;;;;;;;;;;;;;;20.99;48.57;101200.88;5035450;28;1040;-46
2021/05/04 05:56:13;;;;;;;;;;;;;;;21.48;47.73;101198.91;5036361;28;783;-55
2021/05/04 05:58:40;;;;;;;;;;;;;;;21.79;47.07;101212.38;5034316;28;1080;-51
2021/05/04 06:01:05;;;;;;;;;;;;;;;21.98;46.65;101211.53;5036122;28;787;-52
2021/05/04 06:03:31;;;;;;;;;;;;;;;21.97;46.73;101210.72;5036210;28;795;-48
2021/05/04 06:05:56;;;;;;;;;;;;;;;21.41;48.07;101208.72;5036571;28;1918;-46
2021/05/04 06:08:23;;;;;;;;;;;;;;;21.41;47.91;101203.19;5035941;28;993;-58
2021/05/04 06:10:48;;;;;;;;;;;;;;;21.26;47.95;101198.66;5036211;28;949;-46
2021/05/04 06:16:26;;;;;;;;;;;;;;;21.98;46.59;101194.94;5036044;28;1143;-46
2021/05/04 06:18:52;;;;;;;;;;;;;;;22.19;46.13;101185.19;5039474;28;732;-46
2021/05/04 06:21:17;;;;;;;;;;;;;;;22.17;45.92;101192.97;5039439;28;873;-65
2021/05/04 06:23:43;;;;;;;;;;;;;;;21.67;47.40;101200.91;5038846;28;971;-55
2021/05/04 06:26:08;;;;;;;;;;;;;;;21.67;47.27;101200.91;5039301;28;1913;-45
2021/05/04 06:28:34;;;;;;;;;;;;;;;21.32;47.17;101208.53;5039696;28;816;-64
2021/05/04 06:31:00;;;;;;;;;;;;;;;21.72;47.44;101213.88;5039584;28;763;-45
2021/05/04 06:33:25;;;;;;;;;;;;;;;22.08;46.60;101216.94;5039185;28;839;-47
2021/05/04 06:35:51;;;;;;;;;;;;;;;22.33;45.84;101217.63;5039366;28;815;-64
2021/05/04 06:38:18;;;;;;;;;;;;;;;21.76;47.01;101215.75;5039246;28;923;-49
2021/05/04 06:40:44;;;;;;;;;;;;;;;21.72;47.27;101214.69;5054378;28;854;-47
2021/05/04 06:43:10;;;;;;;;;;;;;;;21.23;48.08;101218.63;5039186;28;834;-51
2021/05/04 06:45:35;;;;;;;;;;;;;;;21.18;48.66;101213.94;5054461;28;1977;-47
2021/05/04 06:48:01;;;;;;;;;;;;;;;21.74;47.31;101223.53;5039383;28;788;-47
2021/05/04 06:50:26;;;;;;;;;;;;;;;22.09;46.49;101207.53;5038091;28;799;-69
2021/05/04 06:52:52;;;;;;;;;;;;;;;22.34;45.83;101211.00;5037868;28;846;-53
2021/05/04 06:55:19;;;;;;;;;;;;;;;21.70;47.27;101203.91;5038707;28;951;-49
2021/05/04 06:57:44;;;;;;;;;;;;;;;21.54;47.46;101199.72;5021706;28;1095;-56
2021/05/04 07:00:11;;;;;;;;;;;;;;;21.01;48.30;101198.66;5038824;28;818;-47
2021/05/04 07:02:36;;;;;;;;;;;;;;;21.51;47.95;101192.78;5038792;28;772;-61
2021/05/04 07:05:02;;;;;;;;;;;;;;;21.97;46.81;101191.34;5038299;28;1973;-50
2021/05/04 07:07:28;;;;;;;;;;;;;;;22.28;46.06;101193.63;5038867;28;795;-65
2021/05/04 07:09:53;;;;;;;;;;;;;;;21.84;46.90;101198.47;5038360;28;919;-51
2021/05/04 07:12:19;;;;;;;;;;;;;;;21.74;47.19;101195.00;5038700;28;938;-47
2021/05/04 07:14:44;;;;;;;;;;;;;;;21.57;47.29;101195.53;5037859;28;1154;-48
2021/05/04 07:17:10;;;;;;;;;;;;;;;21.40;48.20;101191.28;5038718;28;847;-50
2021/05/04 07:19:38;;;;;;;;;;;;;;;21.89;46.85;101200.31;5038601;28;804;-55
2021/05/04 07:22:05;;;;;;;;;;;;;;;22.04;46.38;101197.31;5038209;28;828;-64
2021/05/04 07:24:31;;;;;;;;;;;;;;;22.08;46.39;101205.88;5037614;28;837;-45
2021/05/04 07:26:56;;;;;;;;;;;;;;;21.33;48.26;101201.88;5036582;28;1975;-64
2021/05/04 07:29:21;;;;;;;;;;;;;;;21.47;47.98;101205.56;5038369;28;819;-48
2021/05/04 07:31:47;;;;;;;;;;;;;;;21.14;48.11;101207.34;5038051;28;819;-56
2021/05/04 07:34:12;;;;;;;;;;;;;;;21.38;48.13;101201.84;5038121;28;824;-48
2021/05/04 07:36:38;;;;;;;;;;;;;;;21.77;47.06;101211.84;5038208;28;756;-49
2021/05/04 07:39:04;;;;;;;;;;;;;;;22.04;46.31;101210.34;5038017;28;927;-47
2021/05/04 07:41:29;;;;;;;;;;;;;;;22.22;45.97;101209.50;5038098;28;787;-49
2021/05/04 07:44:07;;;;;;;;;;;;;;;21.67;47.24;101211.97;5037717;28;949;-55
2021/05/04 07:46:32;;;;;;;;;;;;;;;21.51;47.51;101220.47;5038504;28;1981;-62
2021/05/04 07:48:58;;;;;;;;;;;;;;;21.34;47.03;101212.66;5037940;28;827;-46
2021/05/04 07:51:23;;;;;;;;;;;;;;;21.48;47.81;101204.47;5038008;28;748;-65
2021/05/04 07:53:49;;;;;;;;;;;;;;;21.94;46.71;101203.03;5037619;28;998;-65
2021/05/04 07:56:14;;;;;;;;;;;;;;;22.25;45.66;101202.53;5036643;28;837;-67
2021/05/04 07:58:40;;;;;;;;;;;;;;;22.30;45.62;101209.94;5037732;28;846;-67
2021/05/04 08:01:07;;;;;;;;;;;;;;;21.37;47.93;101203.75;5037249;28;791;-62
2021/05/04 08:03:32;;;;;;;;;;;;;;;21.48;47.30;101204.47;5037566;28;803;-54
2021/05/04 08:05:58;;;;;;;;;;;;;;;21.13;47.63;101202.97;5037422;28;1914;-45
2021/05/04 08:08:23;;;;;;;;;;;;;;;21.67;47.14;101203.69;5037609;28;979;-64
2021/05/04 08:10:49;;;;;;;;;;;;;;;21.90;46.44;101204.75;5037601;28;747;-66
2021/05/04 08:16:51;;;;;;;;;;;;;;;21.96;46.15;101199.97;5036696;28;1143;-57
2021/05/04 08:19:22;;;;;;;;;;;;;;;21.57;47.19;101201.88;5036189;28;768;-57
2021/05/04 08:21:48;;;;;;;;;;;;;;;21.20;47.85;101198.72;5037502;28;851;-68
2021/05/04 08:24:13;;;;;;;;;;;;;;;21.41;47.52;101198.47;5037205;28;1009;-45
2021/05/04 08:26:39;;;;;;;;;;;;;;;21.83;46.63;101199.56;5037123;28;1971;-65
2021/05/04 08:29:04;;;;;;;;;;;;;;;22.11;45.83;101188.63;5036621;28;1041;-64
2021/05/04 08:31:30;;;;;;;;;;;;;;;22.35;45.29;101198.81;5037102;28;848;-67
2021/05/04 08:33:55;;;;;;;;;;;;;;;22.01;46.05;101186.03;5019447;28;1124;-65
2021/05/04 08:36:39;;;;;;;;;;;;;;;21.83;46.30;101182.97;5037390;28;779;-46
2021/05/04 08:39:05;;;;;;;;;;;;;;;21.28;47.46;101188.09;5036460;28;967;-66
2021/05/04 08:41:32;;;;;;;;;;;;;;;21.28;48.05;101180.66;5037167;28;744;-66
2021/05/04 08:44:06;;;;;;;;;;;;;;;21.85;46.09;101186.28;5036787;28;799;-65
2021/05/04 08:46:34;;;;;;;;;;;;;;;22.06;45.67;101188.72;5036718;28;1918;-48
2021/05/04 08:49:01;;;;;;;;;;;;;;;22.14;45.28;101182.50;5037459;28;759;-71
2021/05/04 08:51:26;;;;;;;;;;;;;;;22.00;45.22;101192.69;5037008;28;856;-64
2021/05/04 08:53:52;;;;;;;;;;;;;;;21.64;46.09;101180.22;5051653;28;1002;-45
2021/05/04 08:56:17;;;;;;;;;;;;;;;21.60;46.12;101187.47;5052383;28;1058;-48
2021/05/04 08:58:43;;;;;;;;;;;;;;;21.50;46.49;101184.78;5036614;28;748;-45
2021/05/04 09:01:08;;;;;;;;;;;;;;;21.91;44.92;101192.56;5036420;28;837;-46
2021/05/04 09:03:49;;;;;;;;;;;;;;;22.01;45.20;101194.34;5037211;28;790;-46
2021/05/04 09:06:24;;;;;;;;;;;;;;;22.25;44.38;101180.38;5035607;28;1918;-46
2021/05/04 09:09:02;;;;;;;;;;;;;;;22.14;44.63;101182.50;5036511;28;974;-48
2021/05/04 09:14:10;;;;;;;;;;;;;;;21.53;45.95;101179.53;5035891;28;740;-46
2021/05/04 09:16:43;;;;;;;;;;;;;;;21.30;45.82;101180.34;5036349;28;1004;-65
2021/05/04 09:21:47;;;;;;;;;;;;;;;22.04;44.58;101174.34;5036292;28;808;-67
2021/05/04 09:24:23;;;;;;;;;;;;;;;22.19;44.33;101173.28;5036166;28;978;-51
2021/05/04 09:26:49;;;;;;;;;;;;;;;22.29;43.98;101178.66;5036124;28;1981;-66
2021/05/04 09:29:14;;;;;;;;;;;;;;;21.74;45.33;101173.72;5036339;28;827;-46
2021/05/04 09:31:40;;;;;;;;;;;;;;;21.41;46.03;101164.47;5036019;28;888;-46
2021/05/04 09:34:06;;;;;;;;;;;;;;;20.99;47.07;101172.44;5035955;28;820;-67
2021/05/04 09:36:44;;;;;;;;;;;;;;;21.62;45.43;101165.84;5036304;28;780;-49
2021/05/04 09:39:11;;;;;;;;;;;;;;;21.99;44.46;101164.19;5036198;28;916;-46
2021/05/04 09:41:36;;;;;;;;;;;;;;;22.26;43.93;101159.03;5036377;28;816;-67
2021/05/04 09:44:05;;;;;;;;;;;;;;;22.31;43.68;101156.19;5035909;28;851;-56
2021/05/04 09:47:03;;;;;;;;;;;;;;;21.70;45.02;101162.41;5051090;28;1987;-47
2021/05/04 09:49:35;;;;;;;;;;;;;;;21.40;45.51;101157.28;5035894;28;1186;-65
2021/05/04 09:52:23;;;;;;;;;;;;;;;21.37;45.70;101153.97;5039725;28;488;-66
2021/05/04 09:54:48;;;;;;;;;;;;;;;21.85;44.53;101146.69;5039581;28;946;-67
2021/05/04 09:57:29;;;;;;;;;;;;;;;22.07;44.19;101151.59;5040100;28;795;-45
2021/05/04 09:59:55;;;;;;;;;;;;;;;22.22;43.85;101156.88;5040158;28;771;-66
2021/05/04 10:02:20;;;;;;;;;;;;;;;22.32;43.39;101155.06;5039720;28;847;-46
2021/05/04 10:04:46;;;;;;;;;;;;;;;21.49;45.40;101153.53;5043723;28;1985;-48
2021/05/04 10:07:11;;;;;;;;;;;;;;;21.48;45.32;101154.66;5037958;28;881;-66
2021/05/04 10:09:37;;;;;;;;;;;;;;;21.16;45.82;101158.94;5046851;28;974;-66
2021/05/04 10:12:02;;;;;;;;;;;;;;;21.57;45.17;101156.78;5039760;28;792;-64
2021/05/04 10:14:43;;;;;;;;;;;;;;;21.98;44.08;101156.16;5054911;28;819;-60
2021/05/04 10:17:08;;;;;;;;;;;;;;;22.12;43.93;101157.06;5038737;28;1221;-66
2021/05/04 10:19:35;;;;;;;;;;;;;;;22.30;43.52;101157.31;5038995;28;1114;-45
2021/05/04 10:22:00;;;;;;;;;;;;;;;22.27;43.17;101155.97;5054682;28;813;-66
2021/05/04 10:24:26;;;;;;;;;;;;;;;21.76;44.50;101146.53;5039318;28;962;-45
2021/05/04 10:26:52;;;;;;;;;;;;;;;21.42;45.54;101150.31;5054988;28;1955;-67
2021/05/04 10:29:17;;;;;;;;;;;;;;;21.20;45.53;101140.63;5054767;28;830;-45
2021/05/04 10:31:48;;;;;;;;;;;;;;;21.52;45.15;101143.84;5039781;28;765;-66
2021/05/04 10:34:26;;;;;;;;;;;;;;;21.88;44.44;101143.31;5054449;28;768;-52
2021/05/04 10:36:52;;;;;;;;;;;;;;;22.05;44.00;101145.56;5038603;28;883;-66
2021/05/04 10:39:34;;;;;;;;;;;;;;;22.18;43.58;101138.41;5026502;28;1007;-67
2021/05/04 10:42:00;;;;;;;;;;;;;;;22.30;43.33;101143.47;5039082;28;775;-66
2021/05/04 10:44:25;;;;;;;;;;;;;;;22.31;43.32;101139.56;5039071;28;783;-66
2021/05/04 10:46:51;;;;;;;;;;;;;;;21.44;45.41;101142.53;5039056;28;2003;-65
2021/05/04 10:49:20;;;;;;;;;;;;;;;21.27;45.87;101131.16;5054459;28;862;-60
2021/05/04 10:51:45;;;;;;;;;;;;;;;21.00;46.60;101138.97;5037934;28;1381;-62
2021/05/04 10:54:11;;;;;;;;;;;;;;;21.58;45.37;101131.59;5038730;28;935;-65
2021/05/04 10:56:43;;;;;;;;;;;;;;;22.00;44.27;101137.31;5039135;28;744;-66
2021/05/04 10:59:29;;;;;;;;;;;;;;;22.19;43.81;101129.78;5036650;28;949;-53
2021/05/04 11:02:09;;;;;;;;;;;;;;;22.37;43.44;101124.50;5037411;28;1417;-66
2021/05/04 11:04:41;;;;;;;;;;;;;;;21.95;44.21;101132.69;5038977;28;747;-64
2021/05/04 11:07:07;;;;;;;;;;;;;;;21.51;45.19;101126.38;5038202;28;1985;-54
2021/05/04 11:09:38;;;;;;;;;;;;;;;21.33;46.01;101129.97;5038560;28;939;-46
2021/05/04 11:12:03;;;;;;;;;;;;;;;21.10;46.57;101129.72;5038537;28;764;-60
2021/05/04 11:14:57;;;;;;;;;;;;;;;21.52;45.69;101127.25;5036534;28;896;-62
2021/05/04 11:17:22;;;;;;;;;;;;;;;22.00;44.29;101123.47;5038376;28;800;-45
2021/05/04 11:19:48;;;;;;;;;;;;;;;22.11;44.23;101116.63;5037575;28;1236;-52
2021/05/04 11:22:19;;;;;;;;;;;;;;;22.00;44.63;101120.69;5038494;28;736;-45
2021/05/04 11:24:45;;;;;;;;;;;;;;;21.39;45.97;101112.16;5037878;28;1910;-52
2021/05/04 11:27:12;;;;;;;;;;;;;;;21.26;46.36;101113.72;5038522;28;846;-65
2021/05/04 11:29:38;;;;;;;;;;;;;;;21.18;46.83;101109.69;5038433;28;744;-46
2021/05/04 11:32:07;;;;;;;;;;;;;;;21.71;45.52;101113.41;5038007;28;815;-46
2021/05/04 11:34:38;;;;;;;;;;;;;;;22.02;44.59;101107.38;5053518;28;1197;-46
2021/05/04 11:37:10;;;;;;;;;;;;;;;22.18;44.15;101108.75;5038021;28;748;-64
2021/05/04 11:39:36;;;;;;;;;;;;;;;22.21;44.12;101101.78;5035180;28;1122;-52
2021/05/04 11:42:02;;;;;;;;;;;;;;;22.25;44.20;101104.78;5037972;28;772;-47
2021/05/04 11:44:33;;;;;;;;;;;;;;;21.84;45.05;101100.75;5037935;28;815;-46
2021/05/04 11:47:18;;;;;;;;;;;;;;;21.28;46.58;101094.91;5037743;28;2001;-47
2021/05/04 11:49:43;;;;;;;;;;;;;;;21.14;46.55;101096.75;5037983;28;740;-57
2021/05/04 11:52:09;;;;;;;;;;;;;;;21.27;46.71;101092.44;5037585;28;859;-52
2021/05/04 11:54:35;;;;;;;;;;;;;;;21.70;45.39;101100.69;5037755;28;994;-46
2021/05/04 11:57:01;;;;;;;;;;;;;;;21.98;44.77;101092.47;5037762;28;755;-47
2021/05/04 11:59:26;;;;;;;;;;;;;;;22.10;44.67;101094.78;5052711;28;811;-66
2021/05/04 12:01:52;;;;;;;;;;;;;;;22.23;44.43;101099.53;5037908;28;752;-52
2021/05/04 12:04:18;;;;;;;;;;;;;;;22.36;43.97;101089.66;5037589;28;799;-46
2021/05/04 12:06:45;;;;;;;;;;;;;;;21.34;46.46;101093.72;5052945;28;1976;-65
2021/05/04 12:09:13;;;;;;;;;;;;;;;21.23;46.80;101091.41;5037675;28;915;-62
2021/05/04 12:11:39;;;;;;;;;;;;;;;20.96;47.29;101098.38;5037187;28;828;-45
2021/05/04 12:14:25;;;;;;;;;;;;;;;21.49;46.22;101095.44;5037503;28;751;-63
2021/05/04 12:16:51;;;;;;;;;;;;;;;21.85;45.28;101092.16;5036701;28;1215;-62
2021/05/04 12:19:22;;;;;;;;;;;;;;;21.99;45.16;101091.34;5037217;28;823;-65
2021/05/04 12:21:51;;;;;;;;;;;;;;;22.15;44.63;101089.97;5035854;28;952;-66
2021/05/04 12:24:21;;;;;;;;;;;;;;;22.27;44.38;101092.25;5037456;28;1022;-45
2021/05/04 12:26:50;;;;;;;;;;;;;;;22.09;44.75;101095.91;5037113;28;1979;-46
2021/05/04 12:29:15;;;;;;;;;;;;;;;21.76;45.41;101093.94;5052439;28;795;-47
2021/05/04 12:31:41;;;;;;;;;;;;;;;21.57;45.94;101096.72;5052696;28;1322;-47
2021/05/04 12:34:06;;;;;;;;;;;;;;;21.50;46.16;101091.56;5036945;28;758;-48
2021/05/04 12:36:33;;;;;;;;;;;;;;;21.44;46.34;101091.94;5037462;28;740;-46
2021/05/04 12:39:00;;;;;;;;;;;;;;;21.59;45.90;101097.25;5036911;28;911;-66
2021/05/04 12:41:33;;;;;;;;;;;;;;;21.92;45.21;101091.75;5037346;28;759;-66
2021/05/04 12:44:14;;;;;;;;;;;;;;;21.78;45.59;101086.16;5035831;28;1228;-61
2021/05/04 12:46:43;;;;;;;;;;;;;;;21.86;45.41;101087.44;5036811;28;1985;-63
2021/05/04 12:49:08;;;;;;;;;;;;;;;21.90;45.23;101084.88;5036853;28;792;-65
2021/05/04 12:51:34;;;;;;;;;;;;;;;21.99;45.22;101083.06;5036881;28;764;-46
2021/05/04 12:54:08;;;;;;;;;;;;;;;21.97;45.28;101082.56;5036495;28;912;-66
2021/05/04 12:56:33;;;;;;;;;;;;;;;21.73;45.63;101074.34;5036807;28;808;-48
2021/05/04 12:59:02;;;;;;;;;;;;;;;21.91;45.40;101073.50;5036767;28;791;-66
2021/05/04 13:01:31;;;;;;;;;;;;;;;21.98;45.32;101068.41;5036525;28;780;-45
2021/05/04 13:03:58;;;;;;;;;;;;;;;21.93;45.34;101070.44;5036626;28;799;-59
2021/05/04 13:06:27;;;;;;;;;;;;;;;21.97;45.45;101060.41;5036460;28;1918;-62
2021/05/04 13:09:16;;;;;;;;;;;;;;;22.12;44.84;101056.50;5036198;28;962;-57
2021/05/04 13:11:54;;;;;;;;;;;;;;;22.01;44.95;101055.91;5036863;28;824;-45